Weather History for Cherokee, IA

Change the Weather History Date:

Tuesday, March 5, 2013

  Actual Average Record
Temperature  
Mean Temperature 26 °F -  
Max Temperature 29 °F 38 °F 66 °F (1987)
Min Temperature 22 °F 17 °F -23 °F (1960)
Degree Days  
Heating Degree Days 40    
Moisture  
Dew Point 20 °F    
Average Humidity 79    
Maximum Humidity 89    
Minimum Humidity 71    
Precipitation  
Precipitation 0.00 in - - ()
Sea Level Pressure  
Sea Level Pressure 30.12 in    
Wind  
Wind Speed 13 mph (NW)    
Max Wind Speed 25 mph    
Max Gust Speed 34 mph    
Visibility 8 miles    
Events Snow    
Averages and records for this station are not official NWS values.
T = Trace of Precipitation, MM = Missing Value Source: NWS Daily Summary

Daily Weather History Graph

Daily Weather History Graph

Search for Another Location

Airport:

Trip Planner

Search our weather history database for the weather conditions in past years. The results will help you decide how hot, cold, wet, or windy it might be!

Date:

Astronomy

Mar. 05, 2013 Rise Set
Actual Time 6:50 AM CST 6:17 PM CST
Civil Twilight 6:22 AM CST 6:45 PM CST
Nautical Twilight 5:49 AM CST 7:18 PM CST
Astronomical Twilight 5:17 AM CST 7:50 PM CST
Moon 2:10 AM CST (3/5) 11:51 AM CST (3/5)
Length of Visible Light 12h 22m
Length of Day
11h 26m
Last Quarter, 40% of the Moon is Illuminated
Mar 5
Last Quarter
Mar 11
New
Mar 19
First Quarter
Mar 27
Full
Apr 2
Last Quarter

Hourly Weather History & Observations

Time (CST) Temp. Windchill Dew Point Humidity Pressure Visibility Wind Dir Wind Speed Gust Speed Precip Events Conditions
12:15 AM 29.5 °F 19.3 °F 21.2 °F 71% 29.97 in 10.0 mi WNW 12.7 mph 17.3 mph N/A   Overcast
12:35 AM 29.1 °F - 21.2 °F 72% 29.97 in 10.0 mi Calm Calm - N/A   Overcast
12:55 AM 28.4 °F 16.2 °F 20.5 °F 72% 29.98 in 10.0 mi WNW 17.3 mph 25.3 mph N/A   Overcast
1:15 AM 27.5 °F 16.8 °F 20.3 °F 74% 29.97 in 10.0 mi WNW 12.7 mph 18.4 mph N/A   Overcast
1:35 AM 27.3 °F 17.7 °F 19.8 °F 73% 29.98 in 10.0 mi WNW 10.4 mph 16.1 mph N/A   Overcast
1:55 AM 26.4 °F 15.5 °F 18.9 °F 73% 29.98 in 10.0 mi WNW 12.7 mph - N/A   Scattered Clouds
2:15 AM 26.2 °F 17.1 °F 19.2 °F 75% 29.98 in 10.0 mi WNW 9.2 mph 16.1 mph N/A   Clear
2:35 AM 26.4 °F 16.0 °F 20.3 °F 78% 29.98 in 10.0 mi WNW 11.5 mph 16.1 mph N/A   Clear
2:55 AM 26.1 °F 16.2 °F 21.2 °F 82% 29.98 in 10.0 mi WNW 10.4 mph 19.6 mph N/A Snow Light Snow
3:15 AM 26.1 °F 17.6 °F 21.7 °F 84% 29.97 in 10.0 mi WNW 8.1 mph 16.1 mph N/A   Overcast
3:35 AM 25.7 °F 16.4 °F 21.6 °F 84% 29.98 in 7.0 mi WNW 9.2 mph - N/A Snow Light Snow
3:55 AM 25.5 °F 14.9 °F 20.7 °F 82% 29.98 in 10.0 mi WNW 11.5 mph 17.3 mph N/A   Overcast
4:15 AM 25.0 °F 14.8 °F 19.8 °F 81% 29.97 in 10.0 mi West 10.4 mph - N/A   Mostly Cloudy
4:55 AM 23.9 °F 12.9 °F 18.5 °F 80% 29.97 in 10.0 mi West 11.5 mph - N/A   Overcast
5:15 AM 24.8 °F 14.0 °F 19.2 °F 79% 29.97 in 10.0 mi West 11.5 mph 16.1 mph N/A   Overcast
5:55 AM 24.8 °F 14.0 °F 20.1 °F 82% 29.97 in 10.0 mi West 11.5 mph - N/A   Overcast
6:15 AM 24.8 °F 14.0 °F 20.3 °F 83% 29.97 in 10.0 mi West 11.5 mph - N/A   Overcast
6:35 AM 25.2 °F 15.1 °F 20.8 °F 84% 29.97 in 7.0 mi West 10.4 mph 17.3 mph N/A Snow Light Snow
6:55 AM 25.2 °F 14.4 °F 21.2 °F 85% 29.97 in 5.0 mi West 11.5 mph 17.3 mph N/A Snow Light Snow
7:15 AM 25.2 °F 14.4 °F 21.7 °F 87% 29.97 in 5.0 mi West 11.5 mph - N/A Snow Light Snow
7:35 AM 25.3 °F 17.6 °F 22.1 °F 87% 29.98 in 4.0 mi WNW 6.9 mph - N/A Snow Light Snow
7:55 AM 25.5 °F 16.9 °F 22.8 °F 89% 29.99 in 2.0 mi NW 8.1 mph - N/A Snow Light Snow
8:15 AM 26.2 °F 15.8 °F 23.4 °F 89% 29.99 in 2.0 mi NNW 11.5 mph 19.6 mph N/A Snow Light Snow
8:35 AM 26.2 °F 15.2 °F 22.6 °F 86% 30.00 in 5.0 mi NW 12.7 mph 19.6 mph N/A Snow Light Snow
8:55 AM 26.2 °F 13.8 °F 22.1 °F 84% 30.01 in 7.0 mi NW 16.1 mph 20.7 mph N/A Snow Light Snow
9:15 AM 26.2 °F 15.8 °F 22.1 °F 84% 30.02 in 7.0 mi NNW 11.5 mph 20.7 mph N/A   Overcast
9:35 AM 26.6 °F 14.3 °F 22.3 °F 84% 30.02 in 10.0 mi NW 16.1 mph 23.0 mph N/A   Overcast
9:55 AM 27.7 °F 15.6 °F 22.5 °F 81% 30.03 in 10.0 mi NNW 16.1 mph 23.0 mph N/A   Overcast
10:15 AM 28.2 °F 15.5 °F 23.0 °F 81% 30.04 in 5.0 mi NNW 18.4 mph 27.6 mph N/A Snow Light Snow
10:35 AM 28.4 °F 16.6 °F 23.7 °F 83% 30.04 in 4.0 mi NW 16.1 mph 24.2 mph N/A Snow Light Snow
10:55 AM 27.1 °F 14.9 °F 23.2 °F 85% 30.06 in 2.0 mi NW 16.1 mph 26.5 mph N/A Snow Light Snow
11:15 AM 27.1 °F 13.4 °F 21.9 °F 81% 30.07 in 4.0 mi NNW 20.7 mph 33.4 mph N/A   Haze
11:35 AM 27.0 °F 14.7 °F 21.9 °F 81% 30.08 in 4.0 mi NNW 16.1 mph 34.5 mph N/A   Haze
11:55 AM 27.3 °F 14.8 °F 22.1 °F 81% 30.09 in 5.0 mi NNW 17.3 mph 29.9 mph N/A   Haze
12:15 PM 27.5 °F 13.9 °F 20.7 °F 75% 30.10 in 10.0 mi NNW 20.7 mph 29.9 mph N/A   Overcast
12:35 PM 27.3 °F 13.6 °F 20.8 °F 77% 30.11 in 10.0 mi NW 20.7 mph 28.8 mph N/A   Overcast
12:55 PM 27.3 °F 14.0 °F 20.7 °F 76% 30.11 in 7.0 mi NNW 19.6 mph 28.8 mph N/A   Overcast
1:15 PM 27.1 °F 13.8 °F 21.7 °F 80% 30.12 in 5.0 mi NNW 19.6 mph 28.8 mph N/A   Haze
1:35 PM 27.5 °F 12.6 °F 20.3 °F 74% 30.13 in 10.0 mi NNW 25.3 mph 33.4 mph N/A   Overcast
1:55 PM 27.5 °F 15.9 °F 21.0 °F 77% 30.14 in 5.0 mi NNW 15.0 mph 29.9 mph N/A Snow Light Snow
2:15 PM 27.9 °F 15.1 °F 21.0 °F 75% 30.14 in 7.0 mi NNW 18.4 mph 27.6 mph N/A Snow Light Snow
2:35 PM 27.9 °F 14.4 °F 21.4 °F 77% 30.14 in 7.0 mi NNW 20.7 mph 27.6 mph N/A Snow Light Snow
2:55 PM 27.5 °F 14.2 °F 21.7 °F 79% 30.16 in 5.0 mi NNW 19.6 mph 26.5 mph N/A Snow Light Snow
3:15 PM 27.5 °F 13.2 °F 21.2 °F 77% 30.16 in 5.0 mi NNW 23.0 mph 28.8 mph N/A   Haze
3:35 PM 27.3 °F 14.4 °F 20.1 °F 74% 30.17 in 7.0 mi NNW 18.4 mph 32.2 mph N/A   Overcast
3:55 PM 27.3 °F 14.0 °F 19.8 °F 73% 30.18 in 10.0 mi NNW 19.6 mph 25.3 mph N/A   Overcast
4:15 PM 27.0 °F 14.3 °F 20.8 °F 78% 30.19 in 10.0 mi NW 17.3 mph 27.6 mph N/A   Overcast
4:35 PM 26.2 °F 14.7 °F 21.7 °F 83% 30.21 in 4.0 mi NW 13.8 mph 19.6 mph N/A Snow Light Snow
4:55 PM 26.4 °F 13.2 °F 20.3 °F 78% 30.22 in 10.0 mi NW 18.4 mph 25.3 mph N/A Snow Light Snow
5:15 PM 25.7 °F 13.5 °F 20.3 °F 80% 30.23 in 5.0 mi NNW 15.0 mph 20.7 mph N/A Snow Light Snow
5:35 PM 25.7 °F 12.7 °F 20.1 °F 79% 30.24 in 7.0 mi NW 17.3 mph 24.2 mph N/A Snow Light Snow
5:55 PM 25.5 °F 13.3 °F 20.1 °F 80% 30.25 in 5.0 mi NNW 15.0 mph 24.2 mph N/A Snow Light Snow
6:15 PM 25.3 °F 12.6 °F 18.5 °F 75% 30.26 in 10.0 mi North 16.1 mph 23.0 mph N/A   Overcast
6:35 PM 24.8 °F 11.1 °F 18.5 °F 77% 30.27 in 7.0 mi NNW 18.4 mph 25.3 mph N/A Snow Light Snow
6:55 PM 24.6 °F 11.7 °F 17.6 °F 75% 30.27 in 10.0 mi NNW 16.1 mph 27.6 mph N/A Snow Light Snow
7:15 PM 24.6 °F 11.3 °F 18.0 °F 76% 30.27 in 10.0 mi NNW 17.3 mph 25.3 mph N/A   Overcast
7:35 PM 24.6 °F 11.7 °F 17.2 °F 74% 30.28 in 10.0 mi NNW 16.1 mph 25.3 mph N/A   Overcast
7:55 PM 24.4 °F 11.9 °F 17.6 °F 75% 30.28 in 10.0 mi NNW 15.0 mph 24.2 mph N/A   Overcast
8:15 PM 23.5 °F 11.8 °F 16.5 °F 75% 30.29 in 10.0 mi NW 12.7 mph 20.7 mph N/A   Scattered Clouds
8:35 PM 23.0 °F 11.1 °F 16.5 °F 76% 30.30 in 10.0 mi NNW 12.7 mph - N/A   Scattered Clouds
8:55 PM 23.0 °F 11.7 °F 17.1 °F 78% 30.30 in 10.0 mi NNW 11.5 mph 17.3 mph N/A   Mostly Cloudy
9:15 PM 22.6 °F 10.7 °F 17.1 °F 79% 30.30 in 10.0 mi NNW 12.7 mph 17.3 mph N/A   Mostly Cloudy
9:35 PM 23.2 °F 12.0 °F 17.6 °F 79% 30.31 in 10.0 mi North 11.5 mph 17.3 mph N/A   Overcast
9:55 PM 23.4 °F 11.6 °F 17.4 °F 78% 30.31 in 10.0 mi NNW 12.7 mph 18.4 mph N/A   Overcast
10:15 PM 23.4 °F 12.8 °F 17.6 °F 79% 30.33 in 10.0 mi NNW 10.4 mph 17.3 mph N/A   Overcast
10:35 PM 23.5 °F 11.8 °F 17.8 °F 79% 30.33 in 10.0 mi NNW 12.7 mph 18.4 mph N/A   Overcast
10:55 PM 23.4 °F 13.5 °F 17.6 °F 79% 30.33 in 10.0 mi NNW 9.2 mph - N/A   Overcast
11:15 PM 23.0 °F 13.1 °F 17.6 °F 80% 30.33 in 10.0 mi NNW 9.2 mph - N/A   Overcast
11:35 PM 23.0 °F 13.9 °F 17.6 °F 80% 30.33 in 10.0 mi NNW 8.1 mph - N/A   Overcast
11:55 PM 22.8 °F 13.6 °F 17.6 °F 80% 30.34 in 10.0 mi NNW 8.1 mph - N/A   Overcast